Time;durP1;ratioP1;P1;durP2;ratioP2;P2;SDS_P1;SDS_P2;PMS_P1;PMS_P2;Temp;Humidity;BMP_temperature;BMP_pressure;BME280_temperature;BME280_humidity;BME280_pressure;Samples;Min_cycle;Max_cycle;Signal;HPM_P1;HPM_P2
2022/11/09 00:01:27;;;;;;;;;9.75;8.50;;;;;;;;5041506;28;51055;-57
2022/11/09 00:04:11;;;;;;;;;11.75;8.25;;;;;;;;5047548;28;51179;-56
2022/11/09 00:06:55;;;;;;;;;1.25;0.75;;;;;;;;5055014;28;51181;-55
2022/11/09 00:09:40;;;;;;;;;9.25;8.50;;;;;;;;5061297;28;51068;-52
2022/11/09 00:12:24;;;;;;;;;13.00;10.50;;;;;;;;5041434;28;51404;-54
2022/11/09 00:15:09;;;;;;;;;11.00;10.00;;;;;;;;5043814;28;51062;-54
2022/11/09 00:17:53;;;;;;;;;13.00;11.25;;;;;;;;5057804;28;51092;-56
2022/11/09 00:20:38;;;;;;;;;12.00;10.25;;;;;;;;5046027;28;51149;-57
2022/11/09 00:23:22;;;;;;;;;14.25;10.25;;;;;;;;5040100;28;51133;-55
2022/11/09 00:26:08;;;;;;;;;13.50;12.00;;;;;;;;5019820;28;51288;-52
2022/11/09 00:28:52;;;;;;;;;3.00;0.75;;;;;;;;5020425;28;51442;-54
2022/11/09 00:31:36;;;;;;;;;14.25;10.50;;;;;;;;5032976;28;51284;-52
2022/11/09 00:34:21;;;;;;;;;13.75;11.00;;;;;;;;5019532;28;51012;-54
2022/11/09 00:37:05;;;;;;;;;13.75;9.00;;;;;;;;5014739;28;51921;-55
2022/11/09 00:39:50;;;;;;;;;13.00;12.00;;;;;;;;5000367;28;51075;-54
2022/11/09 00:42:34;;;;;;;;;13.75;9.50;;;;;;;;5012623;28;51296;-55
2022/11/09 00:45:19;;;;;;;;;15.00;10.75;;;;;;;;5014555;28;51544;-56
2022/11/09 00:48:03;;;;;;;;;13.75;11.75;;;;;;;;5019163;28;51046;-52
2022/11/09 00:50:48;;;;;;;;;15.50;9.75;;;;;;;;5019329;28;51325;-56
2022/11/09 00:53:32;;;;;;;;;14.25;12.50;;;;;;;;5001216;28;51461;-54
2022/11/09 00:56:17;;;;;;;;;11.75;11.50;;;;;;;;5017553;28;51169;-57
2022/11/09 00:59:01;;;;;;;;;15.50;11.25;;;;;;;;5011006;28;51063;-51
2022/11/09 01:01:45;;;;;;;;;15.50;10.25;;;;;;;;5019336;28;51502;-54
2022/11/09 01:04:30;;;;;;;;;12.75;10.00;;;;;;;;4997910;28;51088;-54
2022/11/09 01:07:14;;;;;;;;;14.75;11.00;;;;;;;;5017955;28;51135;-56
2022/11/09 01:09:59;;;;;;;;;10.50;9.50;;;;;;;;5019148;28;51021;-52
2022/11/09 01:12:43;;;;;;;;;14.75;10.00;;;;;;;;5002226;28;51419;-53
2022/11/09 01:15:27;;;;;;;;;11.00;9.50;;;;;;;;5007731;28;51153;-55
2022/11/09 01:18:12;;;;;;;;;14.25;11.75;;;;;;;;5000710;28;51738;-56
2022/11/09 01:20:56;;;;;;;;;14.25;9.25;;;;;;;;5001698;28;51191;-54
2022/11/09 01:23:41;;;;;;;;;11.50;10.50;;;;;;;;5006806;28;51008;-55
2022/11/09 01:26:26;;;;;;;;;12.50;9.25;;;;;;;;5010541;28;51464;-53
2022/11/09 01:29:10;;;;;;;;;11.00;11.00;;;;;;;;5018195;28;51533;-56
2022/11/09 01:31:55;;;;;;;;;17.25;11.25;;;;;;;;5015769;28;51201;-57
2022/11/09 01:34:39;;;;;;;;;13.50;10.50;;;;;;;;5001708;28;51445;-57
2022/11/09 01:37:24;;;;;;;;;10.50;9.50;;;;;;;;4998910;28;51490;-56
2022/11/09 01:40:08;;;;;;;;;11.50;11.50;;;;;;;;4998817;28;51583;-54
2022/11/09 01:42:52;;;;;;;;;12.00;11.00;;;;;;;;4999429;28;51464;-52
2022/11/09 01:45:37;;;;;;;;;13.75;12.75;;;;;;;;4999103;28;51112;-54
2022/11/09 01:48:31;;;;;;;;;11.75;10.75;;;;;;;;4999753;28;51084;-54
2022/11/09 01:51:28;;;;;;;;;17.50;11.00;;;;;;;;5003334;28;51180;-53
2022/11/09 01:54:16;;;;;;;;;12.25;11.75;;;;;;;;4998981;28;51484;-53
2022/11/09 01:57:03;;;;;;;;;10.50;10.50;;;;;;;;4998599;28;51057;-54
2022/11/09 01:59:50;;;;;;;;;15.25;11.00;;;;;;;;4999566;28;51168;-55
2022/11/09 02:02:35;;;;;;;;;9.00;9.00;;;;;;;;5020251;28;51036;-55
2022/11/09 02:05:22;;;;;;;;;14.25;11.50;;;;;;;;5020337;28;51090;-57
2022/11/09 02:08:07;;;;;;;;;10.00;7.00;;;;;;;;5007275;28;51035;-54
2022/11/09 02:11:01;;;;;;;;;14.25;10.75;;;;;;;;5018139;28;51244;-54
2022/11/09 02:13:50;;;;;;;;;11.75;9.75;;;;;;;;5011450;28;51225;-55
2022/11/09 02:16:34;;;;;;;;;15.00;12.00;;;;;;;;5005426;28;51204;-54
2022/11/09 02:19:19;;;;;;;;;13.50;11.25;;;;;;;;5005014;28;51098;-54
2022/11/09 02:22:03;;;;;;;;;12.50;11.25;;;;;;;;5014686;28;51262;-54
2022/11/09 02:24:47;;;;;;;;;17.00;14.00;;;;;;;;5031386;28;51139;-52
2022/11/09 02:27:32;;;;;;;;;14.25;10.50;;;;;;;;5043988;28;51184;-53
2022/11/09 02:30:18;;;;;;;;;10.75;10.75;;;;;;;;5041419;28;51189;-55
2022/11/09 02:33:02;;;;;;;;;13.50;10.75;;;;;;;;5060606;28;51521;-53
2022/11/09 02:35:46;;;;;;;;;14.25;11.00;;;;;;;;5046901;28;51196;-56
2022/11/09 02:38:30;;;;;;;;;11.75;10.75;;;;;;;;5057522;28;51212;-54
2022/11/09 02:41:15;;;;;;;;;12.25;10.50;;;;;;;;5044436;28;51883;-55
2022/11/09 02:44:00;;;;;;;;;14.50;11.75;;;;;;;;5054977;28;51161;-56
2022/11/09 02:46:45;;;;;;;;;17.25;11.25;;;;;;;;5041556;28;51109;-54
2022/11/09 02:49:29;;;;;;;;;13.75;11.75;;;;;;;;5062196;28;51113;-56
2022/11/09 02:52:14;;;;;;;;;11.00;10.00;;;;;;;;5062068;28;51157;-54
2022/11/09 02:54:58;;;;;;;;;12.25;11.75;;;;;;;;5059441;28;51206;-55
2022/11/09 02:57:43;;;;;;;;;12.75;11.25;;;;;;;;5055112;28;51391;-56
2022/11/09 03:00:27;;;;;;;;;12.25;10.00;;;;;;;;5055299;28;51101;-52
2022/11/09 03:03:11;;;;;;;;;14.75;11.25;;;;;;;;5059069;28;51016;-54
2022/11/09 03:05:56;;;;;;;;;12.75;12.25;;;;;;;;5053647;28;51519;-55
2022/11/09 03:08:40;;;;;;;;;17.75;14.00;;;;;;;;5042734;28;51117;-53
2022/11/09 03:11:25;;;;;;;;;11.25;9.25;;;;;;;;5054360;28;51129;-57
2022/11/09 03:14:10;;;;;;;;;13.50;13.25;;;;;;;;5046705;28;50995;-54
2022/11/09 03:16:54;;;;;;;;;15.75;12.00;;;;;;;;5058700;28;51574;-54
2022/11/09 03:19:39;;;;;;;;;20.00;13.00;;;;;;;;5061739;28;51143;-52
2022/11/09 03:22:23;;;;;;;;;17.75;13.25;;;;;;;;5051335;28;51444;-55
2022/11/09 03:25:08;;;;;;;;;14.25;11.00;;;;;;;;5049981;28;51218;-57
2022/11/09 03:27:59;;;;;;;;;15.25;12.00;;;;;;;;5045568;28;51108;-56
2022/11/09 03:30:43;;;;;;;;;13.00;10.25;;;;;;;;5042635;28;51116;-56
2022/11/09 03:33:27;;;;;;;;;13.00;11.00;;;;;;;;5047015;28;51070;-55
2022/11/09 03:36:12;;;;;;;;;14.50;12.00;;;;;;;;5048954;28;51324;-56
2022/11/09 03:38:56;;;;;;;;;16.75;12.00;;;;;;;;5032950;28;51176;-55
2022/11/09 03:41:40;;;;;;;;;15.75;13.25;;;;;;;;5048742;28;51371;-55
2022/11/09 03:44:25;;;;;;;;;11.50;11.25;;;;;;;;5041745;28;51279;-54
2022/11/09 03:47:09;;;;;;;;;13.75;11.50;;;;;;;;5041596;28;51117;-56
2022/11/09 03:49:54;;;;;;;;;15.00;14.50;;;;;;;;5042998;28;50974;-51
2022/11/09 03:52:38;;;;;;;;;15.00;14.00;;;;;;;;5047168;28;51182;-54
2022/11/09 03:55:23;;;;;;;;;16.25;9.50;;;;;;;;5047590;28;51471;-50
2022/11/09 03:58:09;;;;;;;;;15.75;13.25;;;;;;;;5039981;28;51279;-56
2022/11/09 04:00:53;;;;;;;;;17.00;11.00;;;;;;;;5048985;28;51042;-56
2022/11/09 04:03:37;;;;;;;;;18.25;13.00;;;;;;;;5048548;28;51167;-53
2022/11/09 04:06:22;;;;;;;;;17.25;12.00;;;;;;;;5057742;28;51332;-57
2022/11/09 04:09:06;;;;;;;;;19.50;15.25;;;;;;;;5043230;28;51147;-54
2022/11/09 04:11:51;;;;;;;;;15.75;14.25;;;;;;;;5045174;28;52338;-55
2022/11/09 04:14:35;;;;;;;;;16.25;11.50;;;;;;;;5053752;28;51147;-55
2022/11/09 04:17:19;;;;;;;;;17.00;12.50;;;;;;;;5051703;28;51204;-56
2022/11/09 04:20:05;;;;;;;;;13.50;13.50;;;;;;;;5056889;28;51013;-52
2022/11/09 04:22:56;;;;;;;;;17.50;14.00;;;;;;;;5055696;28;51081;-54
2022/11/09 04:25:41;;;;;;;;;14.75;12.00;;;;;;;;5048713;28;51178;-53
2022/11/09 04:28:25;;;;;;;;;15.00;13.50;;;;;;;;5042040;28;51049;-54
2022/11/09 04:31:09;;;;;;;;;17.00;14.00;;;;;;;;5054194;28;52130;-56
2022/11/09 04:33:54;;;;;;;;;17.50;13.75;;;;;;;;5041600;28;51143;-57
2022/11/09 04:36:38;;;;;;;;;15.25;14.00;;;;;;;;5055051;28;51655;-52
2022/11/09 04:39:23;;;;;;;;;17.25;12.50;;;;;;;;5042332;28;51081;-55
2022/11/09 04:42:07;;;;;;;;;15.75;14.25;;;;;;;;5049392;28;51229;-57
2022/11/09 04:44:52;;;;;;;;;26.00;16.25;;;;;;;;5039616;28;51512;-52
2022/11/09 04:47:36;;;;;;;;;12.00;9.25;;;;;;;;5054234;28;51301;-56
2022/11/09 04:50:20;;;;;;;;;18.50;14.00;;;;;;;;5039189;28;52087;-56
2022/11/09 04:53:10;;;;;;;;;14.00;11.00;;;;;;;;5039214;28;51167;-55
2022/11/09 04:55:54;;;;;;;;;15.00;13.75;;;;;;;;5050142;28;51189;-51
2022/11/09 04:58:38;;;;;;;;;15.25;13.25;;;;;;;;5039592;28;51121;-56
2022/11/09 05:01:23;;;;;;;;;20.25;13.25;;;;;;;;5039419;28;51379;-57
2022/11/09 05:04:07;;;;;;;;;15.50;14.75;;;;;;;;5056650;28;51170;-56
2022/11/09 05:06:51;;;;;;;;;16.25;11.25;;;;;;;;5042158;28;51100;-56
2022/11/09 05:09:36;;;;;;;;;17.25;14.00;;;;;;;;5024402;28;51149;-56
2022/11/09 05:12:20;;;;;;;;;17.00;15.25;;;;;;;;5044229;28;51347;-57
2022/11/09 05:15:05;;;;;;;;;15.75;12.25;;;;;;;;5043810;28;51132;-57
2022/11/09 05:17:49;;;;;;;;;18.75;14.75;;;;;;;;5040748;28;51180;-55
2022/11/09 05:20:34;;;;;;;;;23.00;18.75;;;;;;;;5038748;28;51919;-57
2022/11/09 05:26:21;;;;;;;;;23.50;21.00;;;;;;;;5049107;28;51499;-56
2022/11/09 05:29:06;;;;;;;;;26.75;23.50;;;;;;;;5047120;28;51258;-54
2022/11/09 05:31:52;;;;;;;;;39.00;28.50;;;;;;;;5057162;28;51186;-52
2022/11/09 05:34:36;;;;;;;;;40.25;32.00;;;;;;;;5047321;28;51227;-55
2022/11/09 05:37:21;;;;;;;;;38.50;31.00;;;;;;;;5042049;28;51718;-56
2022/11/09 05:40:06;;;;;;;;;37.25;30.00;;;;;;;;5041979;28;51168;-56
2022/11/09 05:42:50;;;;;;;;;41.00;33.50;;;;;;;;5039089;28;51116;-51
2022/11/09 05:45:34;;;;;;;;;37.00;29.50;;;;;;;;5052912;28;51072;-52
2022/11/09 05:48:19;;;;;;;;;32.50;27.75;;;;;;;;5038686;28;51082;-56
2022/11/09 05:51:04;;;;;;;;;35.75;28.50;;;;;;;;5042151;28;51555;-57
2022/11/09 05:53:48;;;;;;;;;39.50;28.75;;;;;;;;5048122;28;51223;-57
2022/11/09 05:56:32;;;;;;;;;33.50;30.25;;;;;;;;5034612;28;51203;-54
2022/11/09 05:59:17;;;;;;;;;38.75;28.75;;;;;;;;5039128;28;51466;-56
2022/11/09 06:02:02;;;;;;;;;36.50;29.25;;;;;;;;5044829;28;51789;-56
2022/11/09 06:04:46;;;;;;;;;36.25;27.25;;;;;;;;5041651;28;51124;-52
2022/11/09 06:07:31;;;;;;;;;35.50;29.50;;;;;;;;5041429;28;51198;-53
2022/11/09 06:10:16;;;;;;;;;37.75;32.75;;;;;;;;5047928;28;51484;-50
2022/11/09 06:13:01;;;;;;;;;45.50;35.75;;;;;;;;5039650;28;51181;-55
2022/11/09 06:15:52;;;;;;;;;49.00;39.25;;;;;;;;5051714;28;50996;-55
2022/11/09 06:18:37;;;;;;;;;51.50;41.50;;;;;;;;5047047;28;52069;-56
2022/11/09 06:21:21;;;;;;;;;50.25;38.25;;;;;;;;5048284;28;51116;-53
2022/11/09 06:24:06;;;;;;;;;38.25;33.50;;;;;;;;5048528;28;51186;-49
2022/11/09 06:26:50;;;;;;;;;41.75;32.25;;;;;;;;5056211;28;51662;-47
2022/11/09 06:29:34;;;;;;;;;41.00;35.00;;;;;;;;5058622;28;50987;-50
2022/11/09 06:32:19;;;;;;;;;40.75;33.75;;;;;;;;5055008;28;51151;-47
2022/11/09 06:35:03;;;;;;;;;40.50;32.75;;;;;;;;5059514;28;51312;-49
2022/11/09 06:37:47;;;;;;;;;42.00;34.00;;;;;;;;5047299;28;51140;-49
2022/11/09 06:40:32;;;;;;;;;40.50;33.00;;;;;;;;5046173;28;51083;-49
2022/11/09 06:43:16;;;;;;;;;42.75;33.00;;;;;;;;5056130;28;51147;-53
2022/11/09 06:46:04;;;;;;;;;44.25;36.50;;;;;;;;5059231;28;51381;-47
2022/11/09 06:48:48;;;;;;;;;41.50;32.75;;;;;;;;5043999;28;51200;-49
2022/11/09 06:51:32;;;;;;;;;46.50;36.25;;;;;;;;5052955;28;51631;-48
2022/11/09 06:54:17;;;;;;;;;42.75;33.00;;;;;;;;5053270;28;51178;-48
2022/11/09 06:57:01;;;;;;;;;41.00;32.25;;;;;;;;5044044;28;51069;-46
2022/11/09 06:59:46;;;;;;;;;43.50;34.25;;;;;;;;5051343;28;51052;-47
2022/11/09 07:02:30;;;;;;;;;46.00;35.75;;;;;;;;5041313;28;51235;-52
2022/11/09 07:05:14;;;;;;;;;44.25;35.50;;;;;;;;5046527;28;51595;-51
2022/11/09 07:07:59;;;;;;;;;37.75;32.75;;;;;;;;5051617;28;51157;-47
2022/11/09 07:10:44;;;;;;;;;42.50;33.50;;;;;;;;5059348;28;51087;-49
2022/11/09 07:13:28;;;;;;;;;43.75;34.50;;;;;;;;5043193;28;51132;-54
2022/11/09 07:16:16;;;;;;;;;42.50;33.00;;;;;;;;5044297;28;51140;-49
2022/11/09 07:19:00;;;;;;;;;35.00;30.75;;;;;;;;5043870;28;51121;-47
2022/11/09 07:21:45;;;;;;;;;40.50;31.75;;;;;;;;5045230;28;51083;-50
2022/11/09 07:24:29;;;;;;;;;37.75;29.00;;;;;;;;5044111;28;51753;-50
2022/11/09 07:27:14;;;;;;;;;39.75;32.25;;;;;;;;5048209;28;51189;-51
2022/11/09 07:29:58;;;;;;;;;47.75;36.50;;;;;;;;5062959;28;51596;-49
2022/11/09 07:32:43;;;;;;;;;49.25;37.25;;;;;;;;5043033;28;51143;-52
2022/11/09 07:35:27;;;;;;;;;39.25;33.50;;;;;;;;5034946;28;51012;-50
2022/11/09 07:38:12;;;;;;;;;48.50;38.75;;;;;;;;5043697;28;51184;-52
2022/11/09 07:41:00;;;;;;;;;43.25;36.00;;;;;;;;5046366;28;51660;-47
2022/11/09 07:43:45;;;;;;;;;47.75;37.50;;;;;;;;5049647;28;51187;-46
2022/11/09 07:46:29;;;;;;;;;48.00;37.75;;;;;;;;5047323;28;51072;-48
2022/11/09 07:49:15;;;;;;;;;46.00;36.25;;;;;;;;5046613;28;51430;-47
2022/11/09 07:51:59;;;;;;;;;40.75;34.50;;;;;;;;5050066;28;51180;-47
2022/11/09 07:54:43;;;;;;;;;42.25;36.00;;;;;;;;5043725;28;51658;-47
2022/11/09 07:57:28;;;;;;;;;41.00;32.50;;;;;;;;5037529;28;51010;-45
2022/11/09 08:00:13;;;;;;;;;41.50;33.00;;;;;;;;5041264;28;51615;-47
2022/11/09 08:02:58;;;;;;;;;47.25;34.75;;;;;;;;5045237;28;51186;-48
2022/11/09 08:05:42;;;;;;;;;41.75;33.00;;;;;;;;5031828;28;51395;-47
2022/11/09 08:08:26;;;;;;;;;40.50;32.00;;;;;;;;5045710;28;51144;-50
2022/11/09 08:11:11;;;;;;;;;36.50;31.75;;;;;;;;5039975;28;51053;-45
2022/11/09 08:13:55;;;;;;;;;39.50;31.50;;;;;;;;5053728;28;51505;-47
2022/11/09 08:16:40;;;;;;;;;42.75;32.75;;;;;;;;5039817;28;51106;-45
2022/11/09 08:19:24;;;;;;;;;34.00;27.25;;;;;;;;5041432;28;51497;-43
2022/11/09 08:22:09;;;;;;;;;37.50;29.75;;;;;;;;5057206;28;51436;-49
2022/11/09 08:24:53;;;;;;;;;33.25;29.00;;;;;;;;5059186;28;51037;-45
2022/11/09 08:27:41;;;;;;;;;32.50;28.00;;;;;;;;5046891;28;51268;-45
2022/11/09 08:30:25;;;;;;;;;36.00;27.75;;;;;;;;5044730;28;51409;-46
2022/11/09 08:33:10;;;;;;;;;27.25;24.50;;;;;;;;5049328;28;51103;-44
2022/11/09 08:35:55;;;;;;;;;25.25;23.50;;;;;;;;5039125;28;51129;-45
2022/11/09 08:38:39;;;;;;;;;21.75;18.50;;;;;;;;5039952;28;51081;-45
2022/11/09 08:41:24;;;;;;;;;18.50;15.25;;;;;;;;5040678;28;51381;-48
2022/11/09 08:44:08;;;;;;;;;23.50;17.75;;;;;;;;5034309;28;51403;-49
2022/11/09 08:46:53;;;;;;;;;18.00;17.50;;;;;;;;5042832;28;51229;-44
2022/11/09 08:49:37;;;;;;;;;15.75;15.75;;;;;;;;5056609;28;51426;-50
2022/11/09 08:52:22;;;;;;;;;17.50;14.25;;;;;;;;5059074;28;51124;-46
2022/11/09 08:55:06;;;;;;;;;14.75;13.75;;;;;;;;5054862;28;50978;-47
2022/11/09 08:57:57;;;;;;;;;19.00;17.25;;;;;;;;5048171;28;51100;-48
2022/11/09 09:00:41;;;;;;;;;21.50;17.00;;;;;;;;5059835;28;51045;-49
2022/11/09 09:03:26;;;;;;;;;22.00;19.00;;;;;;;;5056883;28;51437;-50
2022/11/09 09:06:10;;;;;;;;;18.75;16.50;;;;;;;;5042490;28;51220;-49
2022/11/09 09:08:55;;;;;;;;;23.25;19.25;;;;;;;;5041399;28;51109;-50
2022/11/09 09:11:39;;;;;;;;;26.75;23.75;;;;;;;;5037821;28;51203;-48
2022/11/09 09:14:24;;;;;;;;;27.00;25.75;;;;;;;;5048976;28;51404;-50
2022/11/09 09:17:09;;;;;;;;;23.50;20.00;;;;;;;;5043611;28;51187;-47
2022/11/09 09:19:53;;;;;;;;;20.50;18.25;;;;;;;;5045869;28;51437;-48
2022/11/09 09:22:37;;;;;;;;;27.00;25.00;;;;;;;;5045698;28;51223;-48
2022/11/09 09:25:22;;;;;;;;;28.75;25.75;;;;;;;;5039671;28;51242;-48
2022/11/09 09:28:06;;;;;;;;;21.75;21.25;;;;;;;;5043383;28;51436;-47
2022/11/09 09:30:52;;;;;;;;;25.75;20.00;;;;;;;;5039488;28;51290;-47
2022/11/09 09:33:36;;;;;;;;;25.75;19.25;;;;;;;;5038880;28;51168;-50
2022/11/09 09:36:22;;;;;;;;;20.25;19.50;;;;;;;;5041372;28;51234;-46
2022/11/09 09:39:06;;;;;;;;;16.25;15.00;;;;;;;;5043280;28;51074;-54
2022/11/09 09:41:55;;;;;;;;;12.75;11.00;;;;;;;;5038036;28;51163;-56
2022/11/09 09:44:42;;;;;;;;;11.25;8.50;;;;;;;;5040180;28;51064;-58
2022/11/09 09:47:41;;;;;;;;;12.75;10.25;;;;;;;;5038764;28;51226;-57
2022/11/09 09:50:28;;;;;;;;;13.50;11.25;;;;;;;;5056400;28;51053;-57
2022/11/09 09:53:33;;;;;;;;;14.25;11.75;;;;;;;;5058805;28;51334;-56
2022/11/09 09:56:19;;;;;;;;;11.75;8.50;;;;;;;;5040139;28;51262;-58
2022/11/09 09:59:13;;;;;;;;;10.25;9.50;;;;;;;;5035581;28;51382;-56
2022/11/09 10:01:57;;;;;;;;;14.00;11.50;;;;;;;;5043973;28;51209;-59
2022/11/09 10:04:42;;;;;;;;;8.50;8.50;;;;;;;;5038427;28;51153;-58
2022/11/09 10:07:28;;;;;;;;;5.00;5.00;;;;;;;;5039758;28;50988;-60
2022/11/09 10:10:28;;;;;;;;;8.00;6.25;;;;;;;;5054439;28;52319;-55
2022/11/09 10:13:16;;;;;;;;;7.25;6.25;;;;;;;;5038459;28;51137;-54
2022/11/09 10:16:05;;;;;;;;;7.75;5.00;;;;;;;;5047705;28;51111;-54
2022/11/09 10:18:52;;;;;;;;;7.25;5.25;;;;;;;;5055586;28;51246;-54
2022/11/09 10:21:45;;;;;;;;;5.50;5.00;;;;;;;;5060322;28;51062;-58
2022/11/09 10:24:29;;;;;;;;;8.00;7.00;;;;;;;;5044541;28;51238;-57
2022/11/09 10:27:23;;;;;;;;;6.00;6.00;;;;;;;;5042666;28;51013;-59
2022/11/09 10:30:18;;;;;;;;;6.50;5.75;;;;;;;;5060129;28;51042;-57
2022/11/09 10:33:08;;;;;;;;;5.25;4.50;;;;;;;;5054411;28;51051;-60
2022/11/09 10:35:56;;;;;;;;;6.50;5.50;;;;;;;;5055562;28;51354;-59
2022/11/09 10:38:43;;;;;;;;;6.00;5.25;;;;;;;;5062300;28;51128;-59
2022/11/09 10:41:30;;;;;;;;;5.25;5.25;;;;;;;;5062098;28;51867;-57
2022/11/09 10:44:16;;;;;;;;;4.00;2.75;;;;;;;;5045663;28;51498;-57
2022/11/09 10:47:11;;;;;;;;;10.50;7.50;;;;;;;;5038290;28;51057;-55
2022/11/09 10:50:06;;;;;;;;;10.00;9.00;;;;;;;;5042672;28;50462;-56
2022/11/09 10:52:50;;;;;;;;;4.25;4.25;;;;;;;;5061108;28;51158;-60
2022/11/09 10:55:35;;;;;;;;;8.50;6.25;;;;;;;;5062976;28;51225;-58
2022/11/09 10:58:26;;;;;;;;;7.50;6.25;;;;;;;;5043302;28;50975;-60
2022/11/09 11:01:22;;;;;;;;;6.00;5.25;;;;;;;;5043113;28;51548;-56
2022/11/09 11:04:19;;;;;;;;;7.50;6.00;;;;;;;;5042371;28;51181;-56
2022/11/09 11:07:12;;;;;;;;;7.00;4.75;;;;;;;;5054994;28;51013;-61
2022/11/09 11:10:07;;;;;;;;;10.75;7.75;;;;;;;;5047961;28;51484;-55
2022/11/09 11:13:21;;;;;;;;;14.75;10.00;;;;;;;;5035104;28;51095;-60
2022/11/09 11:16:32;;;;;;;;;17.00;16.50;;;;;;;;5051037;28;51608;-60
2022/11/09 11:19:28;;;;;;;;;14.75;10.50;;;;;;;;5053382;28;51021;-54
2022/11/09 11:22:21;;;;;;;;;12.25;9.25;;;;;;;;5058490;28;51088;-57
2022/11/09 11:25:19;;;;;;;;;16.00;11.75;;;;;;;;5061118;28;51330;-57
2022/11/09 11:28:11;;;;;;;;;9.75;9.75;;;;;;;;5058392;28;51100;-56
2022/11/09 11:30:55;;;;;;;;;11.50;11.00;;;;;;;;5048199;28;50983;-60
2022/11/09 11:33:40;;;;;;;;;11.25;9.75;;;;;;;;5063149;28;51167;-58
2022/11/09 11:36:35;;;;;;;;;16.75;9.00;;;;;;;;5057568;28;51508;-63
2022/11/09 11:39:38;;;;;;;;;11.25;10.00;;;;;;;;5059276;28;51162;-60
2022/11/09 11:42:25;;;;;;;;;11.50;8.50;;;;;;;;5063525;28;51128;-59
2022/11/09 11:45:21;;;;;;;;;6.75;6.75;;;;;;;;5064664;28;51080;-61
2022/11/09 11:48:25;;;;;;;;;8.00;7.25;;;;;;;;5055526;28;51504;-54
2022/11/09 11:51:25;;;;;;;;;10.00;8.75;;;;;;;;5057925;28;51355;-58
2022/11/09 11:54:20;;;;;;;;;9.00;5.00;;;;;;;;5046512;28;51445;-62
2022/11/09 11:57:16;;;;;;;;;8.50;5.00;;;;;;;;5040870;28;51112;-60
2022/11/09 12:00:14;;;;;;;;;8.50;6.00;;;;;;;;5044198;28;51135;-59
2022/11/09 12:03:13;;;;;;;;;8.25;7.50;;;;;;;;5055143;28;51430;-58
2022/11/09 12:06:20;;;;;;;;;9.00;7.25;;;;;;;;5056955;28;51134;-58
2022/11/09 12:09:21;;;;;;;;;9.00;7.50;;;;;;;;5056312;28;51553;-60
2022/11/09 12:12:08;;;;;;;;;12.50;7.50;;;;;;;;5040219;28;51123;-57
2022/11/09 12:15:02;;;;;;;;;10.00;8.00;;;;;;;;5038415;28;51137;-59
2022/11/09 12:17:57;;;;;;;;;10.50;9.25;;;;;;;;5039138;28;51440;-56
2022/11/09 12:20:54;;;;;;;;;7.00;6.00;;;;;;;;5043389;28;51113;-59
2022/11/09 12:23:49;;;;;;;;;7.75;7.50;;;;;;;;5053826;28;51164;-58
2022/11/09 12:26:48;;;;;;;;;12.00;7.00;;;;;;;;5058727;28;51167;-57
2022/11/09 12:29:47;;;;;;;;;5.25;4.25;;;;;;;;5050225;28;51180;-56
2022/11/09 12:32:53;;;;;;;;;11.25;9.00;;;;;;;;5050669;28;51553;-57
2022/11/09 12:35:40;;;;;;;;;12.25;7.75;;;;;;;;5049730;28;51268;-56
2022/11/09 12:38:38;;;;;;;;;10.75;9.25;;;;;;;;5038627;28;51486;-54
2022/11/09 12:41:26;;;;;;;;;6.00;5.50;;;;;;;;5043347;28;51088;-60
2022/11/09 12:44:32;;;;;;;;;7.75;6.75;;;;;;;;5044831;28;51085;-56
2022/11/09 12:47:20;;;;;;;;;9.50;7.50;;;;;;;;5046577;28;51371;-56
2022/11/09 12:50:05;;;;;;;;;8.50;5.00;;;;;;;;5049400;28;50998;-55
2022/11/09 12:52:52;;;;;;;;;11.25;7.00;;;;;;;;5041889;28;51168;-54
2022/11/09 12:55:41;;;;;;;;;12.00;8.00;;;;;;;;5054612;28;51525;-59
2022/11/09 12:58:27;;;;;;;;;8.75;7.25;;;;;;;;5045952;28;51649;-57
2022/11/09 13:01:32;;;;;;;;;10.75;8.25;;;;;;;;5039237;28;51086;-54
2022/11/09 13:04:17;;;;;;;;;10.00;8.25;;;;;;;;5049921;28;51064;-57
2022/11/09 13:07:08;;;;;;;;;7.00;6.00;;;;;;;;5039549;28;51435;-57
2022/11/09 13:09:53;;;;;;;;;12.00;9.00;;;;;;;;5043769;28;51126;-59
2022/11/09 13:12:39;;;;;;;;;8.00;8.00;;;;;;;;5042809;28;51259;-61
2022/11/09 13:15:27;;;;;;;;;11.75;8.00;;;;;;;;5034008;28;51307;-56
2022/11/09 13:18:31;;;;;;;;;8.50;8.00;;;;;;;;5039515;28;51070;-58
2022/11/09 13:21:21;;;;;;;;;8.25;7.75;;;;;;;;5051769;28;51062;-56
2022/11/09 13:24:29;;;;;;;;;7.25;7.25;;;;;;;;5058059;28;51440;-60
2022/11/09 13:27:34;;;;;;;;;8.00;7.25;;;;;;;;5050992;28;51144;-59
2022/11/09 13:30:24;;;;;;;;;8.50;6.75;;;;;;;;5040008;28;51120;-57
2022/11/09 13:33:16;;;;;;;;;11.50;8.00;;;;;;;;5059018;28;51172;-62
2022/11/09 13:36:06;;;;;;;;;8.25;8.25;;;;;;;;5057284;28;51045;-53
2022/11/09 13:39:09;;;;;;;;;17.25;16.50;;;;;;;;5057324;28;51707;-54
2022/11/09 13:41:53;;;;;;;;;10.25;7.75;;;;;;;;5058699;28;52037;-58
2022/11/09 13:44:37;;;;;;;;;9.75;9.25;;;;;;;;5045104;28;51130;-55
2022/11/09 13:47:24;;;;;;;;;10.25;7.00;;;;;;;;5057616;28;51116;-57
2022/11/09 13:50:19;;;;;;;;;11.75;7.75;;;;;;;;5051951;28;51096;-58
2022/11/09 13:53:23;;;;;;;;;8.25;8.25;;;;;;;;5038944;28;51129;-56
2022/11/09 13:56:22;;;;;;;;;8.00;8.00;;;;;;;;5039106;28;51013;-60
2022/11/09 13:59:10;;;;;;;;;11.00;9.00;;;;;;;;5048488;28;51091;-59
2022/11/09 14:01:55;;;;;;;;;13.75;8.00;;;;;;;;5043264;28;51493;-56
2022/11/09 14:04:42;;;;;;;;;11.75;9.25;;;;;;;;5043379;28;51382;-62
2022/11/09 14:07:31;;;;;;;;;10.50;9.50;;;;;;;;5044906;28;51124;-57
2022/11/09 14:10:21;;;;;;;;;10.50;8.75;;;;;;;;5045899;28;51136;-57
2022/11/09 14:13:15;;;;;;;;;17.75;10.00;;;;;;;;5027428;28;51113;-59
2022/11/09 14:16:06;;;;;;;;;10.50;7.75;;;;;;;;5055547;28;51511;-58
2022/11/09 14:19:05;;;;;;;;;8.00;8.00;;;;;;;;5057488;28;51144;-58
2022/11/09 14:21:52;;;;;;;;;10.25;8.00;;;;;;;;5062929;28;51092;-59
2022/11/09 14:24:37;;;;;;;;;9.50;9.25;;;;;;;;5062863;28;51033;-57
2022/11/09 14:27:22;;;;;;;;;16.00;12.00;;;;;;;;5042106;28;51177;-58
2022/11/09 14:30:16;;;;;;;;;8.75;6.75;;;;;;;;5053050;28;51117;-56
2022/11/09 14:33:00;;;;;;;;;13.00;11.25;;;;;;;;5054395;28;51490;-58
2022/11/09 14:35:44;;;;;;;;;11.00;9.00;;;;;;;;5042450;28;51113;-59
2022/11/09 14:38:43;;;;;;;;;10.50;9.75;;;;;;;;5041814;28;51074;-59
2022/11/09 14:41:27;;;;;;;;;12.75;9.50;;;;;;;;5041528;28;51121;-57
2022/11/09 14:44:14;;;;;;;;;14.25;11.50;;;;;;;;5047910;28;51153;-57
2022/11/09 14:46:59;;;;;;;;;12.75;11.00;;;;;;;;5049963;28;51204;-57
2022/11/09 14:49:44;;;;;;;;;9.50;7.25;;;;;;;;5041322;28;51236;-54
2022/11/09 14:52:30;;;;;;;;;11.00;8.00;;;;;;;;5042130;28;51121;-58
2022/11/09 14:55:15;;;;;;;;;8.00;7.75;;;;;;;;5042984;28;51033;-52
2022/11/09 14:57:59;;;;;;;;;11.75;10.00;;;;;;;;5042857;28;51174;-58
2022/11/09 15:00:43;;;;;;;;;13.75;9.25;;;;;;;;5057173;28;51150;-54
2022/11/09 15:03:29;;;;;;;;;16.50;10.75;;;;;;;;5053702;28;51530;-56
2022/11/09 15:06:15;;;;;;;;;14.50;9.25;;;;;;;;5042383;28;51449;-61
2022/11/09 15:09:02;;;;;;;;;13.50;11.00;;;;;;;;5047155;28;51132;-62
2022/11/09 15:11:47;;;;;;;;;13.25;10.00;;;;;;;;5042040;28;51136;-59
2022/11/09 15:14:33;;;;;;;;;9.25;7.25;;;;;;;;5044770;28;51346;-61
2022/11/09 15:17:24;;;;;;;;;10.25;9.50;;;;;;;;5041978;28;51096;-58
2022/11/09 15:20:08;;;;;;;;;11.75;9.50;;;;;;;;5041090;28;51145;-60
2022/11/09 15:22:54;;;;;;;;;6.50;6.50;;;;;;;;5049793;28;51188;-59
2022/11/09 15:25:42;;;;;;;;;10.50;8.25;;;;;;;;5051819;28;51029;-62
2022/11/09 15:28:27;;;;;;;;;8.00;4.50;;;;;;;;5044189;28;51256;-59
2022/11/09 15:31:14;;;;;;;;;10.50;10.00;;;;;;;;5049133;28;51870;-58
2022/11/09 15:33:58;;;;;;;;;11.75;7.75;;;;;;;;5040837;28;51854;-56
2022/11/09 15:36:43;;;;;;;;;11.25;8.25;;;;;;;;5058984;28;51218;-55
2022/11/09 15:39:27;;;;;;;;;10.75;7.25;;;;;;;;5050197;28;51423;-58
2022/11/09 15:42:12;;;;;;;;;12.50;8.00;;;;;;;;5044836;28;51208;-57
2022/11/09 15:44:57;;;;;;;;;8.25;8.25;;;;;;;;5039265;28;51221;-57
2022/11/09 15:47:47;;;;;;;;;10.25;9.75;;;;;;;;5058662;28;51217;-58
2022/11/09 15:50:31;;;;;;;;;9.75;9.00;;;;;;;;5054236;28;51227;-58
2022/11/09 15:53:16;;;;;;;;;13.25;10.00;;;;;;;;5038779;28;51567;-56
2022/11/09 15:56:00;;;;;;;;;9.75;6.75;;;;;;;;5045079;28;51228;-55
2022/11/09 15:58:47;;;;;;;;;11.75;9.00;;;;;;;;5039819;28;51189;-55
2022/11/09 16:01:32;;;;;;;;;7.25;7.25;;;;;;;;5042947;28;51034;-60
2022/11/09 16:04:16;;;;;;;;;6.00;6.00;;;;;;;;5047020;28;51573;-56
2022/11/09 16:07:01;;;;;;;;;8.50;7.00;;;;;;;;5043589;28;51073;-56
2022/11/09 16:09:44;;;;;;;;;8.00;8.00;;;;;;;;5040823;28;51402;-55
2022/11/09 16:12:29;;;;;;;;;7.50;7.50;;;;;;;;5039949;28;51070;-55
2022/11/09 16:15:13;;;;;;;;;8.25;7.75;;;;;;;;5060725;28;51108;-54
2022/11/09 16:17:58;;;;;;;;;13.00;10.00;;;;;;;;5044728;28;51593;-60
2022/11/09 16:20:42;;;;;;;;;11.25;7.75;;;;;;;;5059559;28;51065;-58
2022/11/09 16:23:27;;;;;;;;;12.50;8.50;;;;;;;;5040856;28;51164;-56